Time;durP1;ratioP1;P1;durP2;ratioP2;P2;SDS_P1;SDS_P2;PMS_P1;PMS_P2;Temp;Humidity;BMP_temperature;BMP_pressure;BME280_temperature;BME280_humidity;BME280_pressure;Samples;Min_cycle;Max_cycle;Signal;HPM_P1;HPM_P2
2021/09/08 00:00:31;;;;;;;;;;;;;;;8.29;78.59;98314.55;116359;1179;59536;-68
2021/09/08 00:03:02;;;;;;;13.30;8.80;;;;;;;8.30;79.46;98315.20;116314;1182;71130;-69
2021/09/08 00:05:33;;;;;;;15.50;11.10;;;;;;;8.25;79.62;98317.66;116280;1182;69170;-67
2021/09/08 00:08:03;;;;;;;14.30;9.50;;;;;;;8.21;79.93;98315.30;116240;1178;69202;-65
2021/09/08 00:10:33;;;;;;;12.60;9.00;;;;;;;8.13;80.11;98319.10;116326;1179;59569;-66
2021/09/08 00:13:03;;;;;;;16.40;9.70;;;;;;;8.07;80.08;98317.33;116368;1182;59623;-69
2021/09/08 00:15:32;;;;;;;;;;;;;;;8.04;80.38;98320.95;116346;1182;71452;-66
2021/09/08 00:18:02;;;;;;;12.20;8.30;;;;;;;8.00;80.81;98326.17;116247;1183;68435;-66
2021/09/08 00:20:33;;;;;;;13.20;9.00;;;;;;;7.97;80.85;98323.19;116216;1182;69182;-68
2021/09/08 00:23:02;;;;;;;14.50;9.10;;;;;;;7.95;80.98;98327.27;116181;1182;59525;-68
2021/09/08 00:25:33;;;;;;;15.10;9.90;;;;;;;7.93;80.97;98327.39;116263;1182;59543;-68
2021/09/08 00:28:03;;;;;;;13.40;9.10;;;;;;;7.90;81.05;98328.23;116261;1178;70426;-68
2021/09/08 00:30:33;;;;;;;10.90;8.10;;;;;;;7.86;81.02;98322.85;116252;1182;69123;-68
2021/09/08 00:33:04;;;;;;;13.80;8.30;;;;;;;7.81;80.94;98325.70;116219;1182;69223;-68
2021/09/08 00:35:34;;;;;;;10.10;7.20;;;;;;;7.78;80.44;98324.95;116153;1182;59564;-69
2021/09/08 00:38:09;;;;;;;11.80;8.00;;;;;;;7.76;80.20;98324.73;116219;1181;59527;-68
2021/09/08 00:40:39;;;;;;;12.30;8.60;;;;;;;7.73;80.58;98324.52;116196;1182;70555;-69
2021/09/08 00:43:10;;;;;;;10.10;7.10;;;;;;;7.71;80.24;98327.73;116364;1182;69182;-69
2021/09/08 00:45:39;;;;;;;10.40;7.60;;;;;;;7.71;79.75;98325.11;116234;1182;68481;-66
2021/09/08 00:48:13;;;;;;;9.90;7.60;;;;;;;7.69;80.05;98325.75;116193;1181;59537;-69
2021/09/08 00:50:43;;;;;;;13.20;8.40;;;;;;;7.66;80.44;98325.70;116313;1182;59547;-68
2021/09/08 00:53:16;;;;;;;9.90;6.40;;;;;;;7.64;79.63;98327.69;116149;1183;70770;-69
2021/09/08 00:55:48;;;;;;;11.30;7.90;;;;;;;7.62;80.00;98323.42;116428;1181;68414;-70
2021/09/08 00:58:19;;;;;;;18.20;11.50;;;;;;;7.60;80.67;98324.74;116376;1182;68414;-69
2021/09/08 01:00:50;;;;;;;11.90;8.60;;;;;;;7.57;82.42;98324.20;116345;1182;59514;-68
2021/09/08 01:03:20;;;;;;;15.00;9.40;;;;;;;7.53;81.62;98321.27;116276;1182;59498;-68
2021/09/08 01:05:50;;;;;;;14.30;9.70;;;;;;;7.49;82.49;98323.00;116320;1182;70687;-68
2021/09/08 01:08:22;;;;;;;10.40;7.10;;;;;;;7.47;81.68;98323.96;116230;1181;68994;-69
2021/09/08 01:10:51;;;;;;;;;;;;;;;7.46;79.90;98323.15;116270;1182;69187;-68
2021/09/08 01:13:21;;;;;;;;;;;;;;;7.45;79.98;98322.88;116398;1179;59495;-68
2021/09/08 01:16:01;;;;;;;10.10;8.30;;;;;;;7.43;80.36;98323.30;116346;1181;59568;-69
2021/09/08 01:18:32;;;;;;;11.50;7.40;;;;;;;7.42;80.35;98321.09;116393;1180;71144;-69
2021/09/08 01:21:01;;;;;;;13.90;8.80;;;;;;;7.40;80.35;98315.45;116376;1181;69140;-69
2021/09/08 01:23:32;;;;;;;11.10;7.00;;;;;;;7.39;79.88;98315.83;116344;1181;69227;-69
2021/09/08 01:26:05;;;;;;;12.50;8.60;;;;;;;7.38;79.35;98318.81;116215;1180;59549;-68
2021/09/08 01:28:36;;;;;;;9.80;7.00;;;;;;;7.36;79.54;98319.09;116302;1181;59495;-69
2021/09/08 01:31:05;;;;;;;;;;;;;;;7.35;79.03;98318.61;116263;1181;71276;-66
2021/09/08 01:33:36;;;;;;;9.80;7.20;;;;;;;7.34;79.83;98316.94;116238;1181;69149;-69
2021/09/08 01:36:05;;;;;;;;;;;;;;;7.33;79.00;98313.34;116226;1181;69199;-67
2021/09/08 01:38:36;;;;;;;11.10;7.60;;;;;;;7.31;79.65;98311.33;116230;1181;59526;-67
2021/09/08 01:41:06;;;;;;;12.20;8.60;;;;;;;7.30;79.74;98308.79;116189;1182;59494;-69
2021/09/08 01:43:36;;;;;;;12.00;8.40;;;;;;;7.29;80.32;98307.46;116235;1181;71382;-68
2021/09/08 01:46:07;;;;;;;10.40;6.60;;;;;;;7.27;79.38;98308.59;116167;1181;69004;-69
2021/09/08 01:48:37;;;;;;;7.80;6.00;;;;;;;7.26;79.06;98307.61;116253;1181;68373;-65
2021/09/08 01:51:06;;;;;;;9.00;5.40;;;;;;;7.25;77.89;98307.14;116240;1184;59550;-68
2021/09/08 01:53:36;;;;;;;12.20;8.50;;;;;;;7.22;78.16;98307.77;116301;1181;59546;-67
2021/09/08 01:56:07;;;;;;;7.70;5.00;;;;;;;7.19;78.46;98307.05;116294;1182;70524;-69
2021/09/08 01:58:37;;;;;;;10.40;6.10;;;;;;;7.16;77.43;98306.31;116269;1181;68960;-69
2021/09/08 02:01:07;;;;;;;9.80;6.70;;;;;;;7.13;77.74;98307.48;116234;1181;69198;-67
2021/09/08 02:03:38;;;;;;;9.40;6.80;;;;;;;7.10;79.86;98308.62;116223;1183;59571;-67
2021/09/08 02:06:24;;;;;;;15.80;10.40;;;;;;;7.09;82.03;98306.28;116325;1182;59603;-68
2021/09/08 02:08:58;;;;;;;10.80;8.00;;;;;;;7.06;81.78;98304.30;116386;1179;70545;-67
2021/09/08 02:11:28;;;;;;;8.40;5.70;;;;;;;7.05;80.56;98300.54;116396;1181;68443;-69
2021/09/08 02:13:59;;;;;;;7.20;4.90;;;;;;;7.05;78.75;98299.51;116415;1181;69211;-69
2021/09/08 02:16:29;;;;;;;12.10;9.40;;;;;;;7.06;78.66;98301.38;116346;1181;59493;-68
2021/09/08 02:18:59;;;;;;;10.50;5.70;;;;;;;7.05;79.60;98304.69;116346;1181;59500;-66
2021/09/08 02:21:29;;;;;;;11.40;7.10;;;;;;;7.06;78.21;98303.11;116215;1182;71362;-68
2021/09/08 02:23:59;;;;;;;9.60;6.20;;;;;;;7.04;78.43;98306.16;116246;1181;68239;-68
2021/09/08 02:26:29;;;;;;;11.00;6.40;;;;;;;7.02;77.84;98306.58;116251;1181;68519;-68
2021/09/08 02:29:00;;;;;;;;;;;;;;;6.98;78.51;98303.81;116276;1179;59528;-68
2021/09/08 02:31:30;;;;;;;19.70;10.30;;;;;;;6.96;77.71;98307.55;116211;1181;59571;-66
2021/09/08 02:34:00;;;;;;;12.80;8.80;;;;;;;6.93;80.76;98306.45;116255;1182;71127;-67
2021/09/08 02:36:31;;;;;;;13.70;10.20;;;;;;;6.89;81.01;98306.64;116256;1182;69073;-69
2021/09/08 02:39:01;;;;;;;14.00;10.70;;;;;;;6.85;81.81;98304.23;116218;1182;69318;-65
2021/09/08 02:41:31;;;;;;;11.30;6.90;;;;;;;6.82;80.55;98303.09;116268;1181;59537;-68
2021/09/08 02:44:02;;;;;;;11.20;6.90;;;;;;;6.83;79.66;98302.89;116236;1181;59479;-68
2021/09/08 02:46:32;;;;;;;9.10;5.60;;;;;;;6.82;79.86;98302.44;116321;1181;70775;-71
2021/09/08 02:49:01;;;;;;;17.60;11.20;;;;;;;6.81;80.67;98304.73;116351;1181;68322;-66
2021/09/08 02:51:32;;;;;;;14.90;10.10;;;;;;;6.80;82.43;98305.48;116219;1181;69244;-68
2021/09/08 02:54:02;;;;;;;11.30;7.50;;;;;;;6.77;81.73;98304.03;116251;1181;59546;-68
2021/09/08 02:56:32;;;;;;;;;;;;;;;6.75;81.70;98304.13;116280;1181;59528;-68
2021/09/08 02:59:02;;;;;;;14.20;10.50;;;;;;;6.71;83.08;98302.23;116250;1179;71247;-68
2021/09/08 03:01:32;;;;;;;12.40;7.60;;;;;;;6.70;81.27;98303.29;116253;1181;69136;-68
2021/09/08 03:04:03;;;;;;;16.40;9.50;;;;;;;6.76;82.26;98304.96;116247;1181;69186;-68
2021/09/08 03:06:33;;;;;;;;;;;;;;;6.71;83.89;98303.94;116245;1177;59545;-68
2021/09/08 03:09:04;;;;;;;13.00;8.20;;;;;;;6.70;81.74;98301.74;116229;1181;59505;-67
2021/09/08 03:11:34;;;;;;;10.90;7.70;;;;;;;6.68;81.68;98304.59;116265;1181;71523;-68
2021/09/08 03:14:04;;;;;;;9.10;6.60;;;;;;;6.68;81.47;98308.61;116283;1181;68535;-65
2021/09/08 03:16:34;;;;;;;7.40;5.30;;;;;;;6.66;80.56;98309.38;116245;1181;68456;-68
2021/09/08 03:19:03;;;;;;;12.40;7.50;;;;;;;6.66;80.43;98310.76;116265;1181;59488;-68
2021/09/08 03:21:33;;;;;;;10.50;6.70;;;;;;;6.64;80.97;98316.89;116222;1183;59543;-68
2021/09/08 03:24:03;;;;;;;10.50;6.70;;;;;;;6.62;81.34;98316.98;116244;1181;71354;-69
2021/09/08 03:26:33;;;;;;;7.30;5.00;;;;;;;6.61;80.90;98320.46;116229;1182;69164;-67
2021/09/08 03:29:03;;;;;;;6.50;4.20;;;;;;;6.60;80.32;98322.92;116196;1181;68532;-68
2021/09/08 03:31:33;;;;;;;8.40;5.40;;;;;;;6.59;79.86;98321.40;116270;1181;59602;-67
2021/09/08 03:34:03;;;;;;;10.60;6.80;;;;;;;6.58;80.39;98321.63;116256;1182;59572;-68
2021/09/08 03:36:32;;;;;;;6.70;4.10;;;;;;;6.59;80.37;98327.83;116240;1182;70311;-68
2021/09/08 03:39:02;;;;;;;6.80;4.50;;;;;;;6.60;79.11;98327.09;116255;1181;68532;-68
2021/09/08 03:41:32;;;;;;;;;;;;;;;6.60;79.43;98329.88;116203;1181;68397;-67
2021/09/08 03:44:02;;;;;;;8.60;6.00;;;;;;;6.59;80.01;98331.10;116240;1181;59546;-67
2021/09/08 03:46:32;;;;;;;9.90;7.00;;;;;;;6.59;79.92;98329.55;116250;1180;59549;-68
2021/09/08 03:49:03;;;;;;;7.70;5.60;;;;;;;6.58;79.54;98331.02;116276;1181;70547;-67
2021/09/08 03:51:32;;;;;;;10.30;6.70;;;;;;;6.57;79.06;98332.96;116248;1182;69018;-67
2021/09/08 03:54:02;;;;;;;8.30;5.30;;;;;;;6.55;79.16;98333.00;116189;1181;68336;-68
2021/09/08 03:56:32;;;;;;;6.30;4.60;;;;;;;6.55;78.92;98338.40;116143;1183;59554;-67
2021/09/08 03:59:01;;;;;;;8.90;6.40;;;;;;;6.55;80.17;98332.52;116186;1181;59579;-68
2021/09/08 04:01:31;;;;;;;10.40;6.40;;;;;;;6.55;79.62;98329.71;116165;1181;70533;-67
2021/09/08 04:04:03;;;;;;;9.60;6.80;;;;;;;6.61;79.82;98332.23;116211;1181;68402;-68
2021/09/08 04:06:34;;;;;;;9.10;6.20;;;;;;;6.67;80.93;98333.59;116268;1181;69222;-68
2021/09/08 04:09:04;;;;;;;9.20;5.30;;;;;;;6.69;81.99;98336.11;116237;1179;59523;-67
2021/09/08 04:11:34;;;;;;;12.00;7.20;;;;;;;6.74;81.70;98337.09;116172;1178;59492;-67
2021/09/08 04:14:03;;;;;;;10.20;6.90;;;;;;;6.82;82.21;98339.34;116205;1181;71330;-68
2021/09/08 04:16:33;;;;;;;11.40;6.60;;;;;;;6.92;82.66;98343.05;116135;1182;69354;-68
2021/09/08 04:19:03;;;;;;;7.00;5.30;;;;;;;7.02;82.33;98342.79;116182;1181;68271;-69
2021/09/08 04:21:33;;;;;;;;;;;;;;;7.17;81.99;98347.33;116144;1182;59557;-68
2021/09/08 04:24:03;;;;;;;11.00;6.60;;;;;;;7.37;82.19;98349.23;116127;1178;59542;-67
2021/09/08 04:26:33;;;;;;;11.50;7.50;;;;;;;7.62;81.99;98352.27;116213;1182;71168;-66
2021/09/08 04:29:02;;;;;;;12.00;8.70;;;;;;;7.74;81.80;98355.02;116198;1181;68806;-66
2021/09/08 04:31:32;;;;;;;8.20;5.20;;;;;;;7.90;81.31;98354.27;116221;1182;68260;-68
2021/09/08 04:34:06;;;;;;;7.50;4.90;;;;;;;8.14;81.04;98356.06;116234;1181;59529;-69
2021/09/08 04:36:35;;;;;;;11.00;7.10;;;;;;;8.40;80.01;98358.31;116265;1181;59551;-69
2021/09/08 04:39:05;;;;;;;9.70;6.30;;;;;;;8.62;78.97;98354.23;116272;1181;69591;-66
2021/09/08 04:41:35;;;;;;;10.50;6.60;;;;;;;8.84;77.01;98358.55;116262;1181;68437;-69
2021/09/08 04:44:05;;;;;;;12.80;9.20;;;;;;;9.01;74.98;98361.15;116409;1181;68238;-66
2021/09/08 04:46:35;;;;;;;10.70;6.90;;;;;;;9.11;74.31;98362.03;116269;1181;59514;-68
2021/09/08 04:49:05;;;;;;;8.10;5.20;;;;;;;9.30;75.02;98365.22;116247;1181;59543;-65
2021/09/08 04:51:35;;;;;;;10.00;6.90;;;;;;;9.56;74.55;98364.17;116215;1179;70368;-65
2021/09/08 04:54:04;;;;;;;11.50;6.30;;;;;;;9.80;74.16;98361.85;116222;1181;68421;-67
2021/09/08 04:56:34;;;;;;;9.70;5.60;;;;;;;10.06;72.74;98361.09;116234;1181;69245;-68
2021/09/08 04:59:03;;;;;;;14.80;8.20;;;;;;;10.35;73.82;98363.36;116341;1179;59528;-68
2021/09/08 05:01:33;;;;;;;11.30;6.90;;;;;;;10.65;73.05;98362.85;116346;1181;59544;-69
2021/09/08 05:04:03;;;;;;;11.60;7.40;;;;;;;10.85;69.80;98365.52;116155;1184;70398;-67
2021/09/08 05:06:32;;;;;;;12.70;8.10;;;;;;;11.11;71.72;98364.69;116221;1181;69317;-68
2021/09/08 05:09:02;;;;;;;9.10;6.70;;;;;;;11.35;69.90;98365.12;116242;1178;68418;-66
2021/09/08 05:11:32;;;;;;;12.10;7.50;;;;;;;11.72;70.22;98374.02;116243;1178;59587;-67
2021/09/08 05:14:02;;;;;;;10.00;6.40;;;;;;;12.11;68.20;98374.23;116310;1181;59520;-68
2021/09/08 05:16:31;;;;;;;16.60;11.10;;;;;;;12.42;66.64;98372.95;116234;1178;71298;-68
2021/09/08 05:19:01;;;;;;;17.10;10.00;;;;;;;12.59;64.46;98375.69;116238;1179;68313;-66
2021/09/08 05:21:30;;;;;;;11.70;8.20;;;;;;;12.93;65.42;98377.08;116257;1181;69066;-68
2021/09/08 05:24:00;;;;;;;9.70;6.90;;;;;;;13.24;64.37;98379.00;116213;1181;59536;-70
2021/09/08 05:26:30;;;;;;;11.20;9.00;;;;;;;13.51;63.88;98376.80;116250;1181;59527;-69
2021/09/08 05:28:59;;;;;;;10.90;7.40;;;;;;;13.67;62.76;98380.08;116330;1178;71535;-68
2021/09/08 05:31:28;;;;;;;11.00;6.40;;;;;;;13.57;61.02;98374.86;116266;1182;69020;-68
2021/09/08 05:33:58;;;;;;;8.70;5.70;;;;;;;13.58;61.98;98378.83;116175;1181;68222;-67
2021/09/08 05:36:27;;;;;;;9.20;5.50;;;;;;;13.89;62.60;98376.46;116264;1181;59540;-67
2021/09/08 05:38:56;;;;;;;11.00;6.90;;;;;;;14.22;60.90;98374.23;116207;1181;59560;-67
2021/09/08 05:41:27;;;;;;;12.30;7.40;;;;;;;14.44;60.32;98371.42;116247;1181;71978;-67
2021/09/08 05:43:56;;;;;;;14.10;9.60;;;;;;;14.61;59.37;98365.45;116157;1183;68960;-66
2021/09/08 05:46:25;;;;;;;11.10;7.70;;;;;;;14.67;59.29;98364.86;116215;1181;68476;-66
2021/09/08 05:48:55;;;;;;;10.50;6.80;;;;;;;14.77;59.37;98366.84;116234;1179;59910;-67
2021/09/08 05:51:24;;;;;;;10.50;6.40;;;;;;;15.04;61.27;98367.34;116248;1178;59550;-68
2021/09/08 05:53:53;;;;;;;11.70;7.30;;;;;;;15.35;60.11;98368.06;116255;1181;71389;-67
2021/09/08 05:56:23;;;;;;;9.10;6.40;;;;;;;15.60;58.25;98373.02;116206;1182;68552;-66
2021/09/08 05:58:52;;;;;;;11.50;7.50;;;;;;;15.95;56.70;98369.42;116252;1181;69193;-68
2021/09/08 06:01:21;;;;;;;11.80;9.00;;;;;;;16.40;55.73;98366.30;116205;1181;59540;-69
2021/09/08 06:03:51;;;;;;;13.20;9.30;;;;;;;16.85;55.46;98360.50;116240;1181;60252;-66
2021/09/08 06:06:21;;;;;;;11.60;7.20;;;;;;;17.24;52.86;98361.64;116188;1181;71361;-68
2021/09/08 06:08:50;;;;;;;8.50;6.60;;;;;;;17.91;52.85;98359.56;116233;1181;69084;-69
2021/09/08 06:11:19;;;;;;;9.40;6.30;;;;;;;18.66;52.04;98360.31;116214;1181;69193;-70
2021/09/08 06:13:50;;;;;;;7.80;6.20;;;;;;;19.29;49.76;98358.87;116336;1180;59527;-65
2021/09/08 06:16:19;;;;;;;10.40;7.20;;;;;;;19.67;47.02;98358.52;116241;1179;59559;-67
2021/09/08 06:18:48;;;;;;;12.80;7.40;;;;;;;20.05;48.25;98358.39;116231;1181;70581;-69
2021/09/08 06:21:18;;;;;;;14.80;9.50;;;;;;;19.92;45.52;98360.49;116361;1178;69759;-67
2021/09/08 06:23:47;;;;;;;10.00;7.60;;;;;;;19.69;46.24;98361.14;116242;1184;69393;-66
2021/09/08 06:26:17;;;;;;;11.80;8.70;;;;;;;19.91;46.28;98362.60;116200;1181;59649;-65
2021/09/08 06:28:49;;;;;;;8.00;7.00;;;;;;;19.93;46.49;98363.69;116145;1185;59580;-65
2021/09/08 06:31:18;;;;;;;;;;;;;;;19.90;45.05;98364.21;116175;1181;71213;-67
2021/09/08 06:33:50;;;;;;;10.10;8.10;;;;;;;19.70;45.48;98362.63;116180;1183;69061;-66
2021/09/08 06:36:19;;;;;;;9.20;7.50;;;;;;;19.18;46.80;98360.80;116197;1181;69340;-66
2021/09/08 06:38:49;;;;;;;;;;;;;;;19.48;47.02;98357.67;116197;1181;59549;-67
2021/09/08 06:41:18;;;;;;;10.70;6.20;;;;;;;20.23;46.23;98356.30;116140;1179;59573;-69
2021/09/08 06:43:49;;;;;;;8.60;4.90;;;;;;;20.86;44.92;98355.23;116189;1181;71456;-68
2021/09/08 06:46:19;;;;;;;8.10;5.20;;;;;;;21.38;42.63;98357.12;116233;1179;69187;-70
2021/09/08 06:48:48;;;;;;;8.30;6.60;;;;;;;21.93;43.22;98358.61;116229;1182;68450;-68
2021/09/08 06:51:17;;;;;;;7.60;5.60;;;;;;;22.06;40.83;98356.57;116282;1181;59517;-70
2021/09/08 06:53:46;;;;;;;9.70;6.80;;;;;;;22.19;40.46;98355.08;116144;1181;59513;-69
2021/09/08 06:56:15;;;;;;;10.80;6.30;;;;;;;22.19;40.18;98360.71;116187;1181;71280;-73
2021/09/08 06:58:44;;;;;;;;;;;;;;;21.84;40.16;98363.53;116290;1181;69269;-66
2021/09/08 07:01:13;;;;;;;5.90;5.10;;;;;;;21.97;40.67;98366.19;116217;1182;69197;-69
2021/09/08 07:03:42;;;;;;;5.80;3.90;;;;;;;22.61;40.51;98365.90;116220;1179;59885;-68
2021/09/08 07:06:12;;;;;;;7.40;5.60;;;;;;;22.42;38.70;98364.74;116302;1181;59549;-67
2021/09/08 07:08:41;;;;;;;6.20;4.60;;;;;;;22.29;39.71;98361.55;116296;1181;71392;-67
2021/09/08 07:11:10;;;;;;;7.30;6.00;;;;;;;23.04;38.42;98361.73;116150;1182;68810;-68
2021/09/08 07:13:39;;;;;;;6.30;5.40;;;;;;;22.58;39.02;98362.44;116346;1182;69345;-68
2021/09/08 07:16:08;;;;;;;6.40;4.50;;;;;;;22.75;38.93;98363.10;116240;1182;59559;-68
2021/09/08 07:18:38;;;;;;;5.40;4.40;;;;;;;23.66;37.98;98367.39;116334;1181;59518;-69
2021/09/08 07:21:07;;;;;;;6.40;4.40;;;;;;;23.98;37.63;98366.21;116252;1181;71363;-67
2021/09/08 07:23:36;;;;;;;;;;;;;;;24.16;37.64;98366.83;116300;1181;69024;-67
2021/09/08 07:26:05;;;;;;;7.20;5.70;;;;;;;23.43;37.25;98368.77;116292;1178;68511;-67
2021/09/08 07:28:33;;;;;;;7.80;5.60;;;;;;;22.47;38.44;98368.54;116329;1181;59556;-66
2021/09/08 07:31:03;;;;;;;7.30;5.40;;;;;;;21.76;39.94;98371.94;116298;1181;59549;-66
2021/09/08 07:33:33;;;;;;;7.10;4.90;;;;;;;21.97;40.17;98369.81;116336;1179;71391;-69
2021/09/08 07:36:02;;;;;;;7.60;5.80;;;;;;;21.36;41.51;98373.91;116197;1181;69234;-66
2021/09/08 07:38:31;;;;;;;7.10;5.70;;;;;;;21.02;42.08;98374.36;116212;1181;69938;-68
2021/09/08 07:41:00;;;;;;;7.20;5.20;;;;;;;20.86;42.68;98374.73;116195;1181;59552;-67
2021/09/08 07:43:29;;;;;;;;;;;;;;;21.15;41.70;98379.20;116313;1181;59517;-67
2021/09/08 07:45:58;;;;;;;8.10;5.60;;;;;;;20.92;42.79;98378.16;116275;1179;71265;-68
2021/09/08 07:48:27;;;;;;;6.90;5.20;;;;;;;20.34;43.61;98379.48;116254;1181;68443;-69
2021/09/08 07:50:58;;;;;;;7.20;5.90;;;;;;;20.51;43.65;98376.94;116270;1181;68758;-69
2021/09/08 07:53:27;;;;;;;9.90;6.50;;;;;;;20.33;43.77;98379.06;116178;1181;59521;-70
2021/09/08 07:55:56;;;;;;;7.20;5.80;;;;;;;20.17;44.25;98383.27;116210;1181;59675;-68
2021/09/08 07:58:26;;;;;;;7.60;5.80;;;;;;;20.66;43.51;98372.79;116238;1181;71054;-66
2021/09/08 08:00:55;;;;;;;;;;;;;;;21.30;42.65;98375.41;116180;1181;68427;-69
2021/09/08 08:03:25;;;;;;;6.40;5.60;;;;;;;22.22;40.43;98375.33;116320;1178;69138;-68
2021/09/08 08:05:54;;;;;;;9.30;6.40;;;;;;;22.50;39.36;98369.56;116262;1182;59498;-69
2021/09/08 08:08:23;;;;;;;8.40;6.00;;;;;;;21.81;40.09;98370.89;116258;1182;59571;-71
2021/09/08 08:10:52;;;;;;;5.30;4.30;;;;;;;21.92;40.50;98370.05;116269;1181;71171;-71
2021/09/08 08:13:21;;;;;;;7.70;5.10;;;;;;;23.01;38.56;98370.75;116253;1178;67620;-69
2021/09/08 08:15:50;;;;;;;6.40;5.00;;;;;;;23.67;37.04;98371.47;116280;1180;68290;-70
2021/09/08 08:18:19;;;;;;;4.70;3.80;;;;;;;24.10;36.49;98369.57;116309;1179;59549;-70
2021/09/08 08:20:48;;;;;;;6.00;4.10;;;;;;;24.63;36.26;98365.20;116280;1180;59475;-69
2021/09/08 08:23:17;;;;;;;7.60;5.00;;;;;;;24.43;35.52;98370.58;116350;1182;71335;-71
2021/09/08 08:25:46;;;;;;;8.90;6.00;;;;;;;24.54;36.13;98368.04;116298;1181;69364;-70
2021/09/08 08:28:15;;;;;;;6.90;5.80;;;;;;;23.26;36.85;98370.64;116294;1181;68563;-70
2021/09/08 08:30:44;;;;;;;6.60;5.10;;;;;;;23.16;36.86;98367.73;116245;1178;59581;-69
2021/09/08 08:33:13;;;;;;;7.80;6.20;;;;;;;23.60;36.48;98374.54;116276;1181;59544;-70
2021/09/08 08:35:42;;;;;;;4.80;3.60;;;;;;;23.31;36.65;98369.60;116290;1181;70874;-70
2021/09/08 08:38:11;;;;;;;7.60;5.90;;;;;;;24.40;35.34;98368.98;116271;1181;67284;-66
2021/09/08 08:40:40;;;;;;;5.00;3.50;;;;;;;24.80;34.36;98365.39;116299;1181;69340;-70
2021/09/08 08:43:10;;;;;;;5.70;4.60;;;;;;;25.41;32.85;98368.73;116283;1179;59512;-70
2021/09/08 08:45:40;;;;;;;5.20;4.00;;;;;;;25.83;32.56;98366.95;116270;1178;59528;-71
2021/09/08 08:48:10;;;;;;;5.30;4.50;;;;;;;26.51;32.04;98364.14;116256;1178;70388;-70
2021/09/08 08:50:39;;;;;;;6.00;4.70;;;;;;;26.79;31.38;98363.58;116171;1178;69395;-71
2021/09/08 08:53:08;;;;;;;5.10;4.60;;;;;;;26.63;31.92;98365.95;116279;1180;69342;-72
2021/09/08 08:55:37;;;;;;;6.90;5.20;;;;;;;27.08;30.14;98362.61;116226;1180;59550;-73
2021/09/08 08:58:06;;;;;;;5.80;4.70;;;;;;;26.44;30.49;98361.09;116239;1181;59521;-68
2021/09/08 09:00:35;;;;;;;5.60;4.40;;;;;;;26.70;31.39;98363.42;116281;1181;71998;-70
2021/09/08 09:03:05;;;;;;;6.90;4.60;;;;;;;27.31;31.00;98358.33;116278;1181;69223;-72
2021/09/08 09:05:37;;;;;;;5.90;3.80;;;;;;;27.97;31.11;98359.45;116242;1181;68727;-72
2021/09/08 09:08:08;;;;;;;7.00;5.00;;;;;;;27.91;29.35;98358.08;116282;1179;59547;-71
2021/09/08 09:10:39;;;;;;;5.50;4.60;;;;;;;27.35;29.73;98354.64;116247;1181;59471;-71
2021/09/08 09:13:09;;;;;;;6.70;5.70;;;;;;;26.68;30.29;98348.94;116310;1179;71200;-70
2021/09/08 09:15:38;;;;;;;5.90;4.40;;;;;;;26.16;30.86;98345.92;116286;1181;68790;-71
2021/09/08 09:18:09;;;;;;;5.60;4.70;;;;;;;27.11;30.09;98336.58;116258;1181;68533;-68
2021/09/08 09:20:53;;;;;;;7.70;4.90;;;;;;;27.95;28.63;98340.31;116193;1178;59549;-71
2021/09/08 09:23:24;;;;;;;5.00;3.90;;;;;;;28.29;28.08;98334.09;116169;1182;59547;-73
2021/09/08 09:25:57;;;;;;;;;;;;;;;28.35;27.79;98332.19;116212;1182;71197;-73
2021/09/08 09:28:29;;;;;;;5.30;4.80;;;;;;;27.65;28.08;98326.05;116289;1178;69228;-73
2021/09/08 09:30:58;;;;;;;4.40;3.60;;;;;;;26.79;27.86;98317.80;116214;1181;69233;-70
2021/09/08 09:33:31;;;;;;;5.90;4.30;;;;;;;27.79;27.80;98321.35;116240;1179;59542;-71
2021/09/08 09:36:19;;;;;;;5.40;4.60;;;;;;;27.52;27.36;98316.42;116249;1178;59541;-73
2021/09/08 09:38:50;;;;;;;6.20;5.00;;;;;;;27.27;26.97;98313.70;116251;1182;71377;-70
2021/09/08 09:41:35;;;;;;;6.20;4.00;;;;;;;26.69;27.78;98306.10;116294;1181;69261;-68
2021/09/08 09:44:14;;;;;;;4.10;3.40;;;;;;;27.49;27.45;98304.73;116287;1181;69349;-68
2021/09/08 09:46:45;;;;;;;4.30;3.30;;;;;;;28.55;26.49;98299.11;116265;1181;59566;-71
2021/09/08 09:49:15;;;;;;;6.30;4.50;;;;;;;29.39;24.36;98297.42;116240;1182;59539;-67
2021/09/08 09:51:44;;;;;;;9.30;4.50;;;;;;;30.02;23.83;98296.77;116283;1181;71452;-70
2021/09/08 09:54:15;;;;;;;;;;;;;;;30.32;22.81;98295.01;116291;1179;69110;-67
2021/09/08 09:56:44;;;;;;;5.10;3.70;;;;;;;30.54;21.94;98295.77;116319;1178;69052;-66
2021/09/08 09:59:12;;;;;;;;;;;;;;;30.78;22.73;98287.52;116298;1178;59533;-69
2021/09/08 10:01:42;;;;;;;4.40;3.30;;;;;;;31.11;22.41;98291.80;116324;1179;59486;-71
2021/09/08 10:04:12;;;;;;;6.70;4.90;;;;;;;31.07;21.43;98287.13;116298;1181;71337;-68
2021/09/08 10:06:41;;;;;;;4.00;3.10;;;;;;;30.93;22.03;98280.70;116298;1181;69278;-69
2021/09/08 10:09:14;;;;;;;4.30;3.80;;;;;;;31.37;22.44;98279.86;116288;1178;69253;-67
2021/09/08 10:11:46;;;;;;;6.00;3.90;;;;;;;31.61;21.30;98278.19;116264;1179;59495;-69
2021/09/08 10:14:18;;;;;;;6.40;4.40;;;;;;;31.68;22.04;98278.52;116340;1178;59545;-69
2021/09/08 10:16:48;;;;;;;4.50;3.30;;;;;;;31.99;22.14;98271.00;116344;1181;71211;-67
2021/09/08 10:19:23;;;;;;;6.60;4.50;;;;;;;32.74;21.79;98265.83;116323;1179;68244;-71
2021/09/08 10:21:54;;;;;;;5.10;3.40;;;;;;;33.02;20.10;98261.08;116315;1181;68600;-68
2021/09/08 10:24:26;;;;;;;4.50;3.30;;;;;;;33.44;19.71;98260.44;116250;1181;59540;-68
2021/09/08 10:26:55;;;;;;;4.90;3.90;;;;;;;33.89;18.87;98261.87;116279;1181;59504;-72
2021/09/08 10:29:29;;;;;;;5.10;3.80;;;;;;;34.13;18.90;98257.50;116238;1182;70626;-69
2021/09/08 10:31:59;;;;;;;6.50;3.80;;;;;;;34.50;18.82;98255.76;116240;1182;68996;-69
2021/09/08 10:34:30;;;;;;;6.10;3.50;;;;;;;34.70;18.91;98253.94;116228;1178;69014;-71
2021/09/08 10:37:00;;;;;;;4.40;3.00;;;;;;;35.22;18.36;98253.34;116320;1179;59477;-70
2021/09/08 10:39:29;;;;;;;5.40;3.60;;;;;;;35.64;17.28;98254.52;116249;1180;59537;-72
2021/09/08 10:41:58;;;;;;;4.70;3.20;;;;;;;35.65;17.33;98251.10;116306;1181;71340;-69
2021/09/08 10:44:50;;;;;;;3.70;3.10;;;;;;;35.96;16.34;98251.81;116250;1181;68541;-68
2021/09/08 10:47:36;;;;;;;5.10;3.50;;;;;;;36.08;16.09;98248.90;116265;1181;69129;-68
2021/09/08 10:50:06;;;;;;;4.20;3.10;;;;;;;36.48;15.69;98247.63;116287;1180;59543;-70
2021/09/08 10:52:36;;;;;;;4.70;3.60;;;;;;;36.61;15.59;98246.16;116295;1181;59571;-69
2021/09/08 10:55:08;;;;;;;3.40;2.90;;;;;;;36.61;15.79;98243.44;116205;1182;70578;-73
2021/09/08 10:57:41;;;;;;;4.90;3.50;;;;;;;36.78;15.90;98246.98;116250;1177;68220;-69
2021/09/08 11:00:28;;;;;;;4.90;3.70;;;;;;;37.19;15.80;98242.05;116184;1183;69166;-73
2021/09/08 11:02:58;;;;;;;5.50;3.40;;;;;;;37.64;15.50;98240.75;116264;1180;59892;-70
2021/09/08 11:05:27;;;;;;;4.70;3.50;;;;;;;38.02;14.87;98244.94;116178;1180;59487;-71
2021/09/08 11:07:56;;;;;;;4.10;3.10;;;;;;;38.31;14.33;98243.21;116244;1178;70580;-72
2021/09/08 11:10:33;;;;;;;4.10;3.30;;;;;;;38.42;14.03;98240.40;116224;1178;68334;-68
2021/09/08 11:13:02;;;;;;;6.00;3.90;;;;;;;38.39;14.55;98240.16;116284;1181;68721;-68
2021/09/08 11:15:37;;;;;;;5.30;3.70;;;;;;;37.92;14.06;98234.98;116242;1178;59528;-72
2021/09/08 11:18:12;;;;;;;7.10;3.50;;;;;;;38.35;14.63;98236.88;116327;1180;59501;-69
2021/09/08 11:20:42;;;;;;;3.50;2.90;;;;;;;38.86;13.96;98232.16;116309;1181;72048;-72
2021/09/08 11:23:13;;;;;;;4.70;3.70;;;;;;;39.03;13.16;98226.40;116264;1182;69004;-71
2021/09/08 11:25:44;;;;;;;4.00;3.50;;;;;;;38.90;13.09;98223.20;116184;1179;69194;-73
2021/09/08 11:28:14;;;;;;;5.00;3.70;;;;;;;38.71;13.27;98221.39;116303;1179;59511;-74
2021/09/08 11:30:45;;;;;;;5.50;3.60;;;;;;;38.52;13.91;98220.73;116200;1179;59536;-75
2021/09/08 11:33:16;;;;;;;4.80;3.70;;;;;;;38.90;14.24;98220.61;116298;1181;70988;-71
2021/09/08 11:35:53;;;;;;;4.00;3.10;;;;;;;39.40;13.67;98215.98;116342;1181;69110;-72
2021/09/08 11:38:25;;;;;;;4.10;3.40;;;;;;;39.70;13.36;98214.17;116237;1181;68544;-71
2021/09/08 11:40:57;;;;;;;5.00;4.20;;;;;;;39.90;13.06;98212.32;116269;1181;59559;-71
2021/09/08 11:43:36;;;;;;;4.90;3.50;;;;;;;39.53;12.39;98206.70;116287;1181;59502;-69